createdAt,value
2023-03-31T00:00:57.474Z,21.5
2023-03-31T00:06:49.992Z,21.5
2023-03-31T00:12:35.178Z,21.4
2023-03-31T00:18:28.792Z,21.5
2023-03-31T00:24:20.118Z,21.4
2023-03-31T00:30:11.747Z,21.4
2023-03-31T00:36:03.995Z,21.4
2023-03-31T00:41:57.564Z,21.4
2023-03-31T00:47:50.440Z,21.4
2023-03-31T00:53:42.334Z,21.4
2023-03-31T00:59:34.129Z,21.4
2023-03-31T01:05:26.568Z,21.4
2023-03-31T01:11:18.041Z,21.4
2023-03-31T01:17:10.232Z,21.4
2023-03-31T01:23:02.864Z,21.3
2023-03-31T01:28:54.504Z,21.3
2023-03-31T01:34:45.604Z,21.3
2023-03-31T01:40:22.067Z,21.3
2023-03-31T01:46:13.854Z,21.3
2023-03-31T01:52:05.839Z,21.3
2023-03-31T01:57:57.776Z,21.3
2023-03-31T02:03:49.777Z,21.3
2023-03-31T02:09:25.267Z,21.3
2023-03-31T02:15:17.174Z,21.3
2023-03-31T02:21:09.274Z,21.3
2023-03-31T02:27:00.968Z,21.3
2023-03-31T02:32:52.882Z,21.3
2023-03-31T02:38:44.770Z,21.3
2023-03-31T02:44:35.773Z,21.3
2023-03-31T02:50:27.741Z,21.2
2023-03-31T02:56:19.917Z,21.2
2023-03-31T03:02:11.179Z,21.2
2023-03-31T03:07:50.067Z,21.2
2023-03-31T03:13:26.853Z,21.2
2023-03-31T03:19:03.020Z,21.2
2023-03-31T03:24:41.124Z,21.2
2023-03-31T03:30:32.774Z,21.2
2023-03-31T03:36:25.115Z,21.2
2023-03-31T03:42:15.989Z,21.2
2023-03-31T04:16:14.433Z,21.1
2023-03-31T04:38:11.853Z,21.1
2023-03-31T04:43:47.686Z,21.1
2023-03-31T04:55:19.565Z,21.1
2023-03-31T05:00:56.088Z,21.1
2023-03-31T05:06:49.432Z,21.1
2023-03-31T05:12:42.754Z,21.1
2023-03-31T05:18:33.901Z,21
2023-03-31T05:24:28.337Z,21
2023-03-31T05:30:20.416Z,21
2023-03-31T05:36:14.899Z,20.9
2023-03-31T05:42:06.728Z,21
2023-03-31T05:47:59.977Z,21
2023-03-31T05:53:54.250Z,21
2023-03-31T05:59:48.088Z,21
2023-03-31T06:05:41.737Z,20.9
2023-03-31T06:11:32.361Z,20.9
2023-03-31T06:17:13.077Z,20.9
2023-03-31T06:23:18.197Z,20.9
2023-03-31T06:29:17.078Z,20.9
2023-03-31T06:35:10.398Z,20.9
2023-03-31T06:41:02.406Z,20.9
2023-03-31T06:46:39.976Z,20.8
2023-03-31T06:52:31.750Z,20.8
2023-03-31T06:58:24.488Z,20.8
2023-03-31T07:04:03.940Z,20.8
2023-03-31T07:09:40.347Z,20.8
2023-03-31T07:15:39.470Z,20.8
2023-03-31T07:21:31.274Z,20.8
2023-03-31T07:27:25.627Z,44.6
2023-03-31T07:33:18.843Z,40.1
2023-03-31T07:39:22.021Z,35.5
2023-03-31T07:45:06.927Z,33.1
2023-03-31T07:50:44.210Z,40.6
2023-03-31T07:56:35.462Z,47.2
2023-03-31T08:02:27.617Z,42.4
2023-03-31T08:08:19.947Z,42.3
2023-03-31T08:14:11.112Z,43.8
2023-03-31T08:20:21.542Z,39.4
2023-03-31T08:26:14.011Z,37.8
2023-03-31T08:32:06.569Z,52.4
2023-03-31T08:37:58.297Z,50.3
2023-03-31T08:43:49.277Z,50.9
2023-03-31T08:49:41.209Z,45.1
2023-03-31T08:55:32.504Z,40.8
2023-03-31T09:01:26.830Z,51.8
2023-03-31T09:07:43.694Z,45.6
2023-03-31T09:13:35.978Z,41.1
2023-03-31T09:19:32.169Z,37.8
2023-03-31T09:25:23.382Z,35.3
2023-03-31T09:31:14.754Z,52.1
2023-03-31T09:42:28.973Z,50.9
2023-03-31T09:48:40.227Z,48.9
2023-03-31T09:54:40.107Z,49.4
2023-03-31T10:00:42.218Z,51.6
2023-03-31T10:06:35.048Z,47.9
2023-03-31T10:12:11.112Z,43.5
2023-03-31T10:18:11.938Z,39.8
2023-03-31T10:23:48.122Z,37
2023-03-31T10:29:24.069Z,34.9
2023-03-31T10:35:07.638Z,33.1
2023-03-31T10:41:00.198Z,31.6
2023-03-31T10:47:01.356Z,30.4
2023-03-31T10:52:53.399Z,29.4
2023-03-31T10:58:33.506Z,28.7
2023-03-31T11:04:25.448Z,27.9
2023-03-31T11:10:20.295Z,27.4
2023-03-31T11:15:56.737Z,26.9
2023-03-31T11:21:34.603Z,26.4
2023-03-31T11:27:26.170Z,26
2023-03-31T11:33:20.465Z,25.6
2023-03-31T11:39:13.325Z,25.3
2023-03-31T11:45:06.309Z,27.6
2023-03-31T11:50:42.753Z,50.3
2023-03-31T11:56:18.928Z,45.2
2023-03-31T12:02:10.533Z,41.2
2023-03-31T12:08:02.751Z,37.9
2023-03-31T12:13:54.840Z,37.3
2023-03-31T12:19:32.047Z,54.5
2023-03-31T12:25:23.044Z,48.6
2023-03-31T12:31:14.250Z,43.3
2023-03-31T12:37:06.179Z,39.8
2023-03-31T12:42:42.659Z,40.8
2023-03-31T12:48:19.198Z,57.4
2023-03-31T12:54:15.867Z,52.6
2023-03-31T13:00:06.999Z,52.9
2023-03-31T13:06:01.741Z,53.4
2023-03-31T13:12:06.192Z,53.3
2023-03-31T13:18:13.112Z,48.6
2023-03-31T13:24:06.652Z,43.7
2023-03-31T13:29:56.907Z,40.2
2023-03-31T13:35:51.766Z,54.8
2023-03-31T13:41:30.597Z,50.8
2023-03-31T13:47:22.968Z,45.3
2023-03-31T13:53:18.273Z,41.3
2023-03-31T13:59:31.746Z,38.3
2023-03-31T14:05:24.613Z,35.8
2023-03-31T14:10:45.454Z,34.1
2023-03-31T14:16:23.000Z,32.7
2023-03-31T14:22:14.736Z,31.5
2023-03-31T14:28:07.531Z,30.4
2023-03-31T14:34:00.492Z,29.6
2023-03-31T14:39:52.612Z,28.9
2023-03-31T14:45:43.963Z,28.2
2023-03-31T14:51:05.287Z,27.7
2023-03-31T14:57:20.210Z,27.2
2023-03-31T15:03:12.600Z,26.8
2023-03-31T15:09:14.702Z,26.4
2023-03-31T15:15:27.283Z,26.1
2023-03-31T15:21:19.855Z,25.7
2023-03-31T15:27:23.387Z,25.4
2023-03-31T15:33:37.343Z,25.2
2023-03-31T15:39:44.408Z,25
2023-03-31T15:45:54.331Z,24.8
2023-03-31T15:51:45.500Z,24.6
2023-03-31T15:57:40.281Z,24.5
2023-03-31T16:03:51.295Z,24.4
2023-03-31T16:09:40.293Z,24.3
2023-03-31T16:15:32.257Z,24.1
2023-03-31T16:21:08.492Z,24.1
2023-03-31T16:26:44.356Z,23.9
2023-03-31T16:32:21.302Z,23.9
2023-03-31T16:37:58.295Z,23.8
2023-03-31T16:43:33.829Z,23.7
2023-03-31T16:49:41.081Z,23.7
2023-03-31T16:55:32.397Z,23.6
2023-03-31T17:01:08.793Z,23.6
2023-03-31T17:07:14.275Z,23.5
2023-03-31T17:13:05.720Z,23.4
2023-03-31T17:19:22.829Z,23.4
2023-03-31T17:25:13.844Z,23.3
2023-03-31T17:30:50.376Z,23.3
2023-03-31T17:36:27.182Z,23.2
2023-03-31T17:42:18.848Z,23.2
2023-03-31T17:48:13.049Z,23.1
2023-03-31T17:54:04.813Z,23.1
2023-03-31T17:59:56.762Z,23.1
2023-03-31T18:06:01.927Z,23
2023-03-31T18:11:52.969Z,22.9
2023-03-31T18:17:46.381Z,22.9
2023-03-31T18:23:38.254Z,22.9
2023-03-31T18:29:29.648Z,22.9
2023-03-31T18:35:07.491Z,22.9
2023-03-31T18:40:45.494Z,22.8
2023-03-31T18:46:39.200Z,22.8
2023-03-31T18:52:15.598Z,22.8
2023-03-31T18:57:36.810Z,22.8
2023-03-31T19:03:29.853Z,22.8
2023-03-31T19:09:21.462Z,22.7
2023-03-31T19:15:13.581Z,22.7
2023-03-31T19:21:05.888Z,22.6
2023-03-31T19:26:57.443Z,22.6
2023-03-31T19:32:49.239Z,22.6
2023-03-31T19:38:25.574Z,22.6
2023-03-31T19:44:19.839Z,22.6
2023-03-31T19:50:11.890Z,22.6
2023-03-31T19:56:03.086Z,22.6
2023-03-31T20:01:39.231Z,22.6
2023-03-31T20:07:33.761Z,22.5
2023-03-31T20:13:25.794Z,22.5
2023-03-31T20:19:18.664Z,22.5
2023-03-31T20:24:54.752Z,22.4
2023-03-31T20:30:31.617Z,22.4
2023-03-31T20:36:08.117Z,22.4
2023-03-31T20:41:44.554Z,22.4
2023-03-31T20:47:23.288Z,22.4
2023-03-31T20:52:58.990Z,22.4
2023-03-31T20:58:35.596Z,22.4
2023-03-31T21:04:28.377Z,22.4
2023-03-31T21:10:24.453Z,22.3
2023-03-31T21:16:15.590Z,22.2
2023-03-31T21:21:53.761Z,22.1
2023-03-31T21:27:44.982Z,22
2023-03-31T21:33:05.553Z,22
2023-03-31T21:38:57.569Z,21.9
2023-03-31T21:44:51.551Z,21.9
2023-03-31T21:50:43.116Z,21.8
2023-03-31T21:56:34.451Z,21.8
2023-03-31T22:02:26.458Z,21.8
2023-03-31T22:08:27.534Z,21.7
2023-03-31T22:14:19.212Z,21.7
2023-03-31T22:19:55.770Z,21.7
2023-03-31T22:25:16.787Z,21.6
2023-03-31T22:31:08.854Z,21.6
2023-03-31T22:37:01.293Z,21.6
2023-03-31T22:42:52.673Z,21.5
2023-03-31T22:48:47.733Z,21.5
2023-03-31T22:54:23.030Z,21.5
2023-03-31T23:00:23.780Z,21.4
2023-03-31T23:06:15.966Z,21.4
2023-03-31T23:12:09.356Z,21.4
2023-03-31T23:17:29.980Z,21.4
2023-03-31T23:23:22.353Z,21.3
2023-03-31T23:29:14.080Z,21.3
2023-03-31T23:35:05.942Z,21.3
2023-03-31T23:40:57.615Z,21.3
2023-03-31T23:46:48.847Z,21.3
2023-03-31T23:52:39.949Z,21.3
2023-03-31T23:58:31.517Z,21.3
